createdAt,value
2022-09-21T00:01:30.918Z,17.27
2022-09-21T00:04:01.546Z,17.14
2022-09-21T00:06:31.561Z,17.01
2022-09-21T00:08:58.877Z,17.15
2022-09-21T00:11:29.613Z,17.56
2022-09-21T00:14:04.538Z,17.69
2022-09-21T00:16:32.168Z,17.56
2022-09-21T00:19:00.410Z,17.71
2022-09-21T00:21:28.226Z,17.29
2022-09-21T00:23:55.489Z,17.53
2022-09-21T00:26:25.776Z,17.40
2022-09-21T00:28:59.663Z,17.72
2022-09-21T00:31:28.651Z,17.59
2022-09-21T00:33:55.699Z,17.41
2022-09-21T00:36:25.441Z,17.41
2022-09-21T00:38:59.229Z,17.45
2022-09-21T00:41:27.644Z,17.61
2022-09-21T00:44:16.395Z,17.89
2022-09-21T00:46:45.220Z,17.43
2022-09-21T00:49:12.587Z,16.84
2022-09-21T00:51:39.638Z,16.89
2022-09-21T00:54:15.130Z,17.18
2022-09-21T00:56:44.341Z,17.01
2022-09-21T00:59:13.553Z,17.56
2022-09-21T01:01:41.151Z,17.64
2022-09-21T01:04:09.579Z,17.80
2022-09-21T01:06:38.487Z,17.66
2022-09-21T01:09:05.682Z,17.33
2022-09-21T01:12:12.653Z,17.32
2022-09-21T01:15:05.611Z,17.77
2022-09-21T01:17:44.286Z,17.70
2022-09-21T01:21:16.506Z,17.77
2022-09-21T01:24:18.789Z,17.74
2022-09-21T01:27:32.174Z,17.69
2022-09-21T01:30:11.425Z,17.61
2022-09-21T01:32:45.900Z,17.47
2022-09-21T01:35:32.283Z,17.57
2022-09-21T01:38:15.257Z,17.47
2022-09-21T01:40:47.506Z,17.51
2022-09-21T01:43:34.554Z,17.47
2022-09-21T01:46:04.873Z,17.23
2022-09-21T01:48:41.066Z,17.42
2022-09-21T01:51:11.919Z,17.48
2022-09-21T01:53:54.300Z,16.86
2022-09-21T01:56:28.269Z,17.41
2022-09-21T01:59:11.986Z,17.30
2022-09-21T02:01:50.303Z,17.11
2022-09-21T02:04:18.369Z,16.83
2022-09-21T02:06:47.519Z,17.01
2022-09-21T02:09:14.813Z,17.02
2022-09-21T02:11:45.196Z,17.09
2022-09-21T02:14:20.675Z,17.19
2022-09-21T02:17:23.536Z,17.12
2022-09-21T02:20:09.774Z,17.17
2022-09-21T02:22:51.397Z,17.03
2022-09-21T02:25:50.968Z,16.94
2022-09-21T02:28:49.336Z,17.00
2022-09-21T02:31:32.385Z,16.80
2022-09-21T02:34:08.013Z,16.86
2022-09-21T02:36:57.053Z,16.85
2022-09-21T02:39:53.683Z,16.49
2022-09-21T02:42:28.112Z,16.38
2022-09-21T02:45:14.734Z,16.91
2022-09-21T02:48:07.271Z,16.80
2022-09-21T02:50:39.485Z,16.84
2022-09-21T02:53:09.080Z,16.74
2022-09-21T02:55:37.937Z,16.66
2022-09-21T02:58:12.309Z,16.79
2022-09-21T03:00:40.299Z,16.70
2022-09-21T03:03:24.829Z,16.87
2022-09-21T03:05:54.788Z,16.59
2022-09-21T03:08:22.531Z,16.58
2022-09-21T03:10:50.729Z,16.44
2022-09-21T03:13:18.882Z,16.42
2022-09-21T03:15:46.455Z,16.12
2022-09-21T03:18:14.103Z,16.31
2022-09-21T03:20:47.752Z,16.47
2022-09-21T03:23:14.926Z,16.39
2022-09-21T03:25:46.043Z,16.49
2022-09-21T03:28:14.858Z,16.33
2022-09-21T03:30:42.751Z,16.35
2022-09-21T03:33:10.478Z,16.32
2022-09-21T03:35:37.887Z,16.31
2022-09-21T03:38:05.620Z,16.30
2022-09-21T03:40:33.559Z,16.59
2022-09-21T03:43:00.694Z,16.18
2022-09-21T03:45:27.670Z,16.02
2022-09-21T03:48:00.197Z,16.25
2022-09-21T03:50:29.797Z,15.79
2022-09-21T03:52:57.286Z,15.88
2022-09-21T03:55:24.276Z,15.85
2022-09-21T03:57:51.618Z,15.95
2022-09-21T04:00:18.903Z,16.10
2022-09-21T04:02:45.849Z,16.05
2022-09-21T04:05:15.198Z,16.27
2022-09-21T04:07:45.662Z,16.18
2022-09-21T04:10:16.201Z,15.66
2022-09-21T04:12:44.623Z,15.60
2022-09-21T04:15:19.544Z,15.77
2022-09-21T04:17:47.188Z,15.59
2022-09-21T04:20:14.147Z,15.43
2022-09-21T04:22:43.679Z,15.29
2022-09-21T04:25:12.792Z,15.58
2022-09-21T04:27:41.103Z,15.48
2022-09-21T04:30:11.296Z,15.53
2022-09-21T04:32:38.363Z,15.52
2022-09-21T04:35:06.051Z,15.66
2022-09-21T04:37:33.000Z,15.55
2022-09-21T04:40:00.263Z,15.40
2022-09-21T04:42:27.635Z,15.47
2022-09-21T04:44:55.988Z,15.43
2022-09-21T04:47:24.538Z,15.46
2022-09-21T04:49:53.362Z,15.52
2022-09-21T04:52:20.688Z,15.40
2022-09-21T04:54:48.009Z,15.84
2022-09-21T04:57:15.679Z,15.51
2022-09-21T04:59:42.720Z,15.24
2022-09-21T05:02:10.147Z,15.23
2022-09-21T05:04:37.307Z,15.23
2022-09-21T05:07:04.392Z,15.21
2022-09-21T05:09:49.663Z,15.11
2022-09-21T05:12:16.634Z,15.05
2022-09-21T05:14:44.914Z,15.30
2022-09-21T05:17:13.244Z,15.35
2022-09-21T05:19:41.078Z,15.90
2022-09-21T05:22:08.676Z,15.96
2022-09-21T05:24:35.661Z,15.71
2022-09-21T05:27:02.606Z,15.73
2022-09-21T05:29:30.080Z,15.71
2022-09-21T05:32:27.362Z,15.96
2022-09-21T05:35:17.337Z,15.87
2022-09-21T05:37:54.005Z,15.88
2022-09-21T05:40:21.457Z,15.78
2022-09-21T05:42:48.875Z,15.61
2022-09-21T05:45:18.234Z,15.62
2022-09-21T05:48:10.148Z,15.66
2022-09-21T05:51:09.096Z,15.53
2022-09-21T05:53:52.786Z,15.67
2022-09-21T05:56:57.003Z,15.67
2022-09-21T05:59:41.400Z,15.53
2022-09-21T06:02:47.527Z,15.76
2022-09-21T06:05:16.300Z,15.53
2022-09-21T06:07:43.246Z,15.34
2022-09-21T06:10:13.211Z,15.43
2022-09-21T06:12:40.476Z,15.10
2022-09-21T06:15:12.633Z,15.22
2022-09-21T06:17:40.372Z,15.25
2022-09-21T06:20:11.013Z,15.51
2022-09-21T06:22:38.054Z,15.41
2022-09-21T06:25:05.585Z,15.40
2022-09-21T06:27:32.796Z,15.34
2022-09-21T06:29:59.743Z,15.32
2022-09-21T06:32:26.872Z,15.36
2022-09-21T06:34:54.228Z,15.27
2022-09-21T06:37:21.165Z,15.15
2022-09-21T06:39:48.071Z,15.24
2022-09-21T06:42:15.062Z,14.97
2022-09-21T06:44:42.480Z,14.59
2022-09-21T06:47:09.529Z,15.08
2022-09-21T06:49:41.730Z,15.26
2022-09-21T06:52:09.876Z,15.29
2022-09-21T06:54:36.927Z,15.53
2022-09-21T06:57:03.978Z,15.42
2022-09-21T06:59:31.014Z,15.27
2022-09-21T07:01:58.486Z,15.35
2022-09-21T07:04:26.151Z,15.65
2022-09-21T07:06:53.658Z,15.47
2022-09-21T07:12:08.146Z,15.53
2022-09-21T07:14:35.159Z,15.62
2022-09-21T07:17:02.582Z,15.66
2022-09-21T07:19:29.580Z,15.61
2022-09-21T07:21:56.563Z,15.72
2022-09-21T07:24:23.653Z,15.49
2022-09-21T07:26:50.653Z,15.45
2022-09-21T07:29:17.612Z,15.90
2022-09-21T07:31:45.109Z,15.51
2022-09-21T07:34:12.406Z,15.86
2022-09-21T07:36:39.359Z,15.72
2022-09-21T07:39:09.441Z,15.81
2022-09-21T07:41:36.816Z,15.75
2022-09-21T07:44:04.630Z,15.42
2022-09-21T07:46:32.025Z,15.62
2022-09-21T07:48:59.012Z,15.84
2022-09-21T07:51:26.012Z,16.13
2022-09-21T07:53:56.899Z,16.31
2022-09-21T07:56:24.755Z,16.28
2022-09-21T07:59:07.197Z,16.11
2022-09-21T08:01:39.001Z,16.13
2022-09-21T08:04:09.229Z,15.86
2022-09-21T08:06:39.937Z,15.87
2022-09-21T08:09:08.447Z,15.96
2022-09-21T08:11:37.327Z,16.10
2022-09-21T08:14:05.032Z,16.37
2022-09-21T08:16:36.698Z,16.20
2022-09-21T08:19:05.369Z,16.36
2022-09-21T08:21:32.396Z,16.16
2022-09-21T08:23:59.483Z,16.48
2022-09-21T08:26:27.482Z,16.48
2022-09-21T08:28:58.277Z,16.04
2022-09-21T08:31:26.163Z,16.37
2022-09-21T08:33:54.909Z,16.26
2022-09-21T08:36:22.281Z,16.67
2022-09-21T08:38:49.315Z,15.97
2022-09-21T08:41:24.813Z,16.89
2022-09-21T08:44:10.108Z,17.30
2022-09-21T08:46:38.862Z,16.42
2022-09-21T08:49:14.761Z,16.85
2022-09-21T08:52:02.189Z,16.73
2022-09-21T08:54:44.574Z,16.87
2022-09-21T08:57:16.077Z,16.99
2022-09-21T08:59:48.859Z,16.91
2022-09-21T09:03:24.282Z,17.09
2022-09-21T09:06:09.060Z,17.22
2022-09-21T09:08:41.759Z,17.74
2022-09-21T09:11:26.712Z,17.93
2022-09-21T09:14:36.497Z,16.91
2022-09-21T09:17:15.142Z,17.43
2022-09-21T09:20:14.964Z,17.22
2022-09-21T09:23:13.131Z,16.56
2022-09-21T09:25:43.091Z,17.80
2022-09-21T09:28:25.943Z,18.35
2022-09-21T09:31:05.379Z,18.36
2022-09-21T09:33:55.572Z,17.29
2022-09-21T09:36:57.204Z,17.22
2022-09-21T09:39:23.314Z,17.72
2022-09-21T09:42:15.471Z,17.70
2022-09-21T09:45:40.367Z,17.67
2022-09-21T09:48:32.474Z,18.16
2022-09-21T09:50:59.665Z,18.09
2022-09-21T09:53:27.570Z,18.94
2022-09-21T09:55:57.276Z,17.42
2022-09-21T09:58:57.425Z,17.37
2022-09-21T10:01:50.005Z,17.65
2022-09-21T10:04:18.439Z,17.40
2022-09-21T10:06:47.020Z,17.98
2022-09-21T10:09:30.096Z,18.20
2022-09-21T10:12:25.446Z,18.69
2022-09-21T10:14:57.007Z,17.89
2022-09-21T10:17:25.527Z,18.05
2022-09-21T10:20:04.766Z,17.95
2022-09-21T10:22:31.887Z,17.25
2022-09-21T10:25:01.696Z,17.75
2022-09-21T10:27:36.098Z,18.13
2022-09-21T10:30:03.749Z,18.72
2022-09-21T10:32:31.548Z,18.87
2022-09-21T10:35:10.981Z,19.58
2022-09-21T10:37:53.651Z,19.72
2022-09-21T10:40:20.841Z,19.51
2022-09-21T10:42:51.571Z,19.41
2022-09-21T10:45:20.659Z,19.37
2022-09-21T10:47:50.731Z,20.06
2022-09-21T10:50:38.233Z,19.50
2022-09-21T10:53:16.559Z,19.25
2022-09-21T10:56:21.890Z,19.46
2022-09-21T10:59:22.258Z,19.89
2022-09-21T11:01:52.889Z,19.66
2022-09-21T11:04:46.197Z,19.41
2022-09-21T11:07:34.127Z,19.85
2022-09-21T11:10:18.724Z,20.46
2022-09-21T11:12:58.974Z,20.35
2022-09-21T11:15:49.193Z,20.97
2022-09-21T11:18:18.689Z,20.70
2022-09-21T11:21:00.011Z,20.60
2022-09-21T11:23:50.112Z,23.82
2022-09-21T11:29:40.066Z,24.62
2022-09-21T11:32:59.207Z,22.73
2022-09-21T11:35:53.341Z,25.24
2022-09-21T11:38:46.282Z,26.53
2022-09-21T11:41:50.134Z,27.64
2022-09-21T11:45:16.577Z,28.95
2022-09-21T11:48:11.158Z,27.96
2022-09-21T11:50:57.611Z,29.31
2022-09-21T11:54:05.260Z,28.37
2022-09-21T11:56:52.632Z,26.87
2022-09-21T11:59:55.763Z,28.69
2022-09-21T12:03:08.716Z,24.89
2022-09-21T12:06:17.938Z,25.33
2022-09-21T12:09:38.053Z,27.81
2022-09-21T12:12:38.433Z,26.71
2022-09-21T12:15:24.547Z,23.27
2022-09-21T12:18:18.379Z,22.54
2022-09-21T12:21:01.875Z,21.74
2022-09-21T12:23:44.057Z,21.71
2022-09-21T12:26:18.607Z,21.87
2022-09-21T12:28:54.843Z,21.74
2022-09-21T12:31:47.275Z,21.85
2022-09-21T12:34:34.225Z,22.33
2022-09-21T12:37:27.477Z,29.09
2022-09-21T12:40:27.995Z,30.78
2022-09-21T12:43:38.530Z,30.74
2022-09-21T12:46:21.885Z,32.06
2022-09-21T12:48:55.495Z,33.32
2022-09-21T12:51:33.475Z,34.28
2022-09-21T12:54:18.142Z,33.38
2022-09-21T12:56:53.915Z,27.68
2022-09-21T12:59:42.184Z,23.75
2022-09-21T13:05:28.194Z,27.63
2022-09-21T13:08:05.910Z,30.57
2022-09-21T13:10:41.887Z,29.58
2022-09-21T13:13:27.989Z,25.73
2022-09-21T13:15:55.626Z,23.22
2022-09-21T13:18:36.338Z,24.68
2022-09-21T13:21:23.033Z,27.40
2022-09-21T13:23:58.804Z,28.44
2022-09-21T13:26:38.201Z,29.25
2022-09-21T13:29:27.626Z,30.13
2022-09-21T13:32:03.730Z,29.93
2022-09-21T13:34:43.523Z,27.97
2022-09-21T13:37:19.171Z,26.92
2022-09-21T13:40:13.306Z,28.50
2022-09-21T13:42:49.147Z,33.33
2022-09-21T13:45:36.363Z,31.09
2022-09-21T13:48:20.145Z,29.36
2022-09-21T13:50:47.116Z,28.57
2022-09-21T13:53:28.756Z,31.28
2022-09-21T13:56:24.936Z,33.24
2022-09-21T13:58:57.345Z,32.23
2022-09-21T14:01:51.259Z,26.54
2022-09-21T14:04:26.698Z,24.79
2022-09-21T14:06:56.035Z,24.01
2022-09-21T14:09:40.146Z,24.31
2022-09-21T14:12:27.729Z,22.82
2022-09-21T14:15:39.416Z,23.78
2022-09-21T14:18:37.675Z,23.03
2022-09-21T14:21:19.344Z,22.79
2022-09-21T14:24:26.978Z,22.94
2022-09-21T14:27:45.437Z,23.97
2022-09-21T14:30:26.031Z,23.75
2022-09-21T14:33:21.852Z,23.15
2022-09-21T14:35:51.446Z,21.67
2022-09-21T14:38:31.822Z,22.48
2022-09-21T14:41:08.119Z,22.89
2022-09-21T14:43:37.774Z,22.23
2022-09-21T14:46:47.778Z,22.53
2022-09-21T14:50:01.703Z,22.64
2022-09-21T14:52:59.959Z,22.75
2022-09-21T14:56:05.517Z,22.68
2022-09-21T14:58:47.974Z,22.50
2022-09-21T15:01:33.966Z,22.32
2022-09-21T15:04:45.319Z,22.90
2022-09-21T15:07:59.542Z,23.27
2022-09-21T15:10:56.042Z,22.84
2022-09-21T15:14:06.169Z,23.54
2022-09-21T15:16:39.158Z,22.97
2022-09-21T15:19:16.359Z,22.82
2022-09-21T15:21:47.513Z,22.18
2022-09-21T15:24:31.642Z,22.75
2022-09-21T15:27:15.781Z,22.73
2022-09-21T15:29:49.173Z,23.02
2022-09-21T15:32:41.109Z,23.09
2022-09-21T15:35:22.331Z,23.36
2022-09-21T15:37:51.311Z,23.43
2022-09-21T15:40:31.097Z,22.82
2022-09-21T15:43:05.732Z,23.49
2022-09-21T15:45:56.021Z,22.78
2022-09-21T15:48:34.028Z,22.30
2022-09-21T15:51:14.487Z,22.63
2022-09-21T15:53:52.488Z,22.96
2022-09-21T15:56:23.623Z,22.72
2022-09-21T15:58:51.981Z,22.42
2022-09-21T16:01:23.361Z,21.91
2022-09-21T16:04:06.049Z,22.74
2022-09-21T16:06:38.845Z,22.62
2022-09-21T16:09:43.249Z,21.59
2022-09-21T16:12:43.866Z,21.68
2022-09-21T16:15:32.085Z,22.25
2022-09-21T16:18:05.098Z,22.07
2022-09-21T16:20:45.787Z,21.55
2022-09-21T16:23:17.908Z,21.60
2022-09-21T16:25:53.649Z,21.28
2022-09-21T16:28:21.047Z,20.88
2022-09-21T16:30:53.576Z,21.52
2022-09-21T16:33:49.155Z,21.57
2022-09-21T16:36:33.983Z,22.65
2022-09-21T16:39:14.171Z,22.21
2022-09-21T16:42:03.032Z,22.78
2022-09-21T16:44:34.507Z,22.43
2022-09-21T16:47:03.645Z,22.75
2022-09-21T16:49:34.723Z,22.94
2022-09-21T16:54:29.190Z,22.64
2022-09-21T16:57:00.120Z,23.03
2022-09-21T16:59:27.825Z,22.57
2022-09-21T17:01:58.049Z,22.49
2022-09-21T17:04:32.633Z,22.51
2022-09-21T17:07:00.817Z,22.37
2022-09-21T17:09:33.979Z,22.71
2022-09-21T17:12:03.406Z,22.96
2022-09-21T17:14:35.807Z,22.98
2022-09-21T17:17:24.361Z,22.98
2022-09-21T17:19:53.963Z,22.84
2022-09-21T17:22:21.940Z,22.34
2022-09-21T17:24:52.382Z,22.70
2022-09-21T17:27:26.778Z,22.73
2022-09-21T17:29:55.268Z,23.04
2022-09-21T17:32:24.263Z,23.00
2022-09-21T17:35:12.400Z,22.50
2022-09-21T17:37:39.364Z,22.56
2022-09-21T17:40:10.955Z,22.63
2022-09-21T17:42:43.254Z,23.04
2022-09-21T17:45:39.305Z,22.96
2022-09-21T17:48:13.560Z,22.96
2022-09-21T17:50:40.659Z,23.00
2022-09-21T17:53:28.097Z,22.97
2022-09-21T17:55:59.284Z,22.61
2022-09-21T17:58:28.801Z,22.48
2022-09-21T18:01:04.831Z,22.68
2022-09-21T18:03:35.929Z,22.62
2022-09-21T18:06:04.211Z,22.34
2022-09-21T18:08:35.432Z,21.77
2022-09-21T18:11:43.426Z,22.38
2022-09-21T18:14:52.956Z,22.77
2022-09-21T18:17:51.580Z,21.84
2022-09-21T18:20:29.437Z,22.28
2022-09-21T18:23:14.959Z,22.62
2022-09-21T18:25:49.193Z,22.48
2022-09-21T18:28:44.868Z,21.03
2022-09-21T18:31:46.610Z,21.04
2022-09-21T18:35:00.109Z,21.56
2022-09-21T18:38:08.892Z,20.60
2022-09-21T18:41:12.222Z,21.18
2022-09-21T18:44:05.162Z,20.61
2022-09-21T18:46:44.510Z,20.40
2022-09-21T18:49:43.530Z,20.16
2022-09-21T18:52:35.891Z,20.46
2022-09-21T18:55:11.901Z,20.72
2022-09-21T18:57:39.174Z,20.95
2022-09-21T19:00:10.790Z,20.56
2022-09-21T19:02:48.713Z,20.45
2022-09-21T19:05:25.472Z,19.89
2022-09-21T19:08:20.558Z,20.26
2022-09-21T19:11:34.766Z,20.67
2022-09-21T19:14:07.217Z,20.60
2022-09-21T19:16:49.209Z,20.73
2022-09-21T19:19:43.822Z,20.72
2022-09-21T19:22:54.249Z,21.02
2022-09-21T19:25:50.400Z,21.04
2022-09-21T19:28:53.876Z,20.93
2022-09-21T19:31:21.040Z,20.49
2022-09-21T19:33:51.137Z,20.41
2022-09-21T19:36:20.438Z,20.14
2022-09-21T19:38:48.035Z,20.11
2022-09-21T19:41:33.310Z,20.49
2022-09-21T19:44:50.061Z,20.63
2022-09-21T19:47:30.773Z,20.44
2022-09-21T19:50:16.589Z,20.98
2022-09-21T19:52:44.422Z,19.75
2022-09-21T19:55:39.488Z,19.75
2022-09-21T19:58:25.919Z,19.39
2022-09-21T20:00:55.703Z,19.52
2022-09-21T20:03:44.630Z,19.55
2022-09-21T20:06:29.819Z,19.53
2022-09-21T20:09:18.582Z,19.96
2022-09-21T20:12:22.962Z,20.18
2022-09-21T20:15:17.904Z,19.82
2022-09-21T20:18:00.231Z,19.68
2022-09-21T20:20:28.573Z,19.74
2022-09-21T20:22:56.232Z,19.70
2022-09-21T20:25:32.433Z,19.81
2022-09-21T20:27:59.803Z,19.53
2022-09-21T20:30:32.674Z,19.81
2022-09-21T20:33:14.279Z,19.87
2022-09-21T20:35:42.884Z,19.41
2022-09-21T20:38:15.079Z,19.83
2022-09-21T20:40:42.244Z,20.20
2022-09-21T20:43:10.012Z,19.88
2022-09-21T20:45:37.518Z,19.88
2022-09-21T20:48:14.030Z,20.02
2022-09-21T20:50:48.663Z,20.06
2022-09-21T20:53:16.572Z,19.83
2022-09-21T20:55:54.170Z,19.80
2022-09-21T20:58:21.513Z,19.94
2022-09-21T21:00:49.039Z,19.81
2022-09-21T21:03:16.142Z,18.95
2022-09-21T21:05:43.141Z,19.63
2022-09-21T21:08:10.084Z,19.73
2022-09-21T21:10:37.172Z,19.44
2022-09-21T21:13:05.055Z,19.42
2022-09-21T21:15:32.268Z,19.26
2022-09-21T21:17:59.220Z,19.30
2022-09-21T21:20:26.375Z,19.77
2022-09-21T21:22:53.780Z,19.67
2022-09-21T21:25:20.748Z,19.31
2022-09-21T21:27:47.770Z,19.14
2022-09-21T21:30:15.549Z,19.08
2022-09-21T21:32:42.882Z,19.14
2022-09-21T21:35:09.975Z,18.89
2022-09-21T21:37:37.396Z,18.86
2022-09-21T21:40:04.870Z,18.98
2022-09-21T21:42:31.865Z,18.92
2022-09-21T21:44:58.834Z,18.99
2022-09-21T21:47:39.406Z,19.24
2022-09-21T21:50:08.319Z,19.62
2022-09-21T21:52:35.276Z,19.22
2022-09-21T21:55:02.521Z,19.03
2022-09-21T21:57:29.556Z,19.12
2022-09-21T21:59:56.510Z,18.48
2022-09-21T22:02:24.283Z,18.20
2022-09-21T22:04:53.798Z,18.29
2022-09-21T22:07:20.785Z,18.14
2022-09-21T22:09:47.740Z,19.21
2022-09-21T22:12:14.675Z,19.07
2022-09-21T22:14:41.652Z,18.70
2022-09-21T22:17:08.606Z,18.19
2022-09-21T22:19:35.802Z,18.26
2022-09-21T22:22:02.768Z,18.59
2022-09-21T22:24:29.727Z,18.24
2022-09-21T22:26:56.900Z,18.65
2022-09-21T22:29:24.600Z,18.68
2022-09-21T22:31:51.756Z,18.57
2022-09-21T22:34:20.243Z,18.82
2022-09-21T22:36:47.248Z,18.71
2022-09-21T22:39:14.247Z,19.28
2022-09-21T22:41:42.809Z,19.60
2022-09-21T22:44:10.847Z,19.47
2022-09-21T22:46:38.881Z,19.23
2022-09-21T22:49:05.885Z,19.16
2022-09-21T22:51:33.914Z,18.95
2022-09-21T22:54:01.706Z,19.27
2022-09-21T22:56:32.420Z,18.74
2022-09-21T22:59:02.449Z,18.67
2022-09-21T23:01:39.151Z,18.78
2022-09-21T23:04:10.271Z,18.64
2022-09-21T23:06:40.658Z,18.72
2022-09-21T23:09:19.729Z,18.57
2022-09-21T23:11:53.186Z,18.53
2022-09-21T23:14:21.249Z,18.50
2022-09-21T23:16:48.510Z,18.37
2022-09-21T23:19:15.770Z,18.04
2022-09-21T23:21:49.867Z,18.14
2022-09-21T23:24:17.871Z,18.07
2022-09-21T23:26:45.601Z,18.02
2022-09-21T23:29:15.145Z,17.42
2022-09-21T23:31:45.477Z,18.08
2022-09-21T23:34:13.826Z,18.14
2022-09-21T23:36:42.093Z,18.06
2022-09-21T23:39:12.473Z,18.16
2022-09-21T23:41:39.754Z,17.77
2022-09-21T23:44:06.795Z,18.09
2022-09-21T23:46:37.806Z,18.18
2022-09-21T23:49:05.550Z,18.15
2022-09-21T23:51:32.844Z,18.08
2022-09-21T23:54:00.766Z,17.95
2022-09-21T23:56:28.555Z,17.84
2022-09-21T23:58:55.948Z,17.83
